K6P9

Ranger Airport

Ranger, Texas, USA
METAR K6P9 210915Z AUTO 22005KT 10SM CLR 26/15 A2997 RMK AO2 T02590151
Observed Flight Rules
Jul-21 @ 09:15 UTC (29 minutes ago) Visual Flight Rules
Wind Visibility Clouds
220° at 5 knots 10 miles
  • Clear skies
Temperatures Readings
Current 26°C / 79°F
Dewpoint 15°C / 59°F
Humidity 51%
Altimeter 29.97" Hg
Pressure 1015 hPa
Elevation 449
METAR K6P9 210915Z AUTO 22005KT 10SM CLR 26/15 A2997 RMK AO2 T02590151
Observed Flight Rules
Jul-21 @ 09:15 UTC
(29 minutes ago)
VFR
Wind Visibility
220° at 5 knots 10 miles
Clouds
  • Clear skies
Temperature Dewpoint
26°C / 79°F 15°C / 59°F
Humidity Altimeter Pressure
51% 29.97" Hg 1015 hPa